FKYS/NSI METAR and TAF weather

Enter ICAO airport designator
Station Type Date Time Source
FKYS METAR 2018/10/16 20:00 UTC NOAA

FKYS 162000Z /////KT 7000 TS FEW006 FEW016CB 23/23 Q1018 NOSIG


Station Type Date Time Source
FKYS Decoded METAR 2018/10/16 20:00 UTC NOAA

Yaounde, Cameroon (FKYS) 03-50N 011-31E 760M
Oct 16, 2018 - 04:00 PM EDT / 2018.10.16 2000 UTC
Visibility: 4 mile(s):0
Sky conditions: mostly clear
Weather: thunder; Cumulonimbus clouds observed
Temperature: 73 F (23 C)
Dew Point: 73 F (23 C)
Relative Humidity: 100%
Pressure (altimeter): 30.06 in. Hg (1018 hPa)
ob: FKYS 162000Z /////KT 7000 TS FEW006 FEW016CB 23/23 Q1018 NOSIG
cycle: 20

Station Type Date Time Source
FKYS TAF 2018/10/16 18:30 UTC NOAA

TAF TAF FKYS 161700Z 1618/1718 VRB05KT 8000 TS BKN006 FEW020CB
BECMG 1622/1624 NSW
TEMPO 1700/1706 2500 BR
BECMG 1708/1710 BKN016


Example: see airport list